createdAt,value
2022-10-13T00:00:09.713Z,96732.06
2022-10-13T00:02:36.328Z,96737.47
2022-10-13T00:05:02.904Z,96737.44
2022-10-13T00:07:29.494Z,96734.00
2022-10-13T00:09:56.078Z,96742.81
2022-10-13T00:12:22.777Z,96732.59
2022-10-13T00:14:49.438Z,96733.78
2022-10-13T00:17:16.077Z,96734.59
2022-10-13T00:19:42.664Z,96735.28
2022-10-13T00:22:09.252Z,96738.81
2022-10-13T00:24:35.904Z,96737.59
2022-10-13T00:27:02.488Z,96736.78
2022-10-13T00:29:29.106Z,96731.97
2022-10-13T00:31:55.700Z,96737.69
2022-10-13T00:34:22.291Z,96737.38
2022-10-13T00:36:48.878Z,96737.38
2022-10-13T00:39:15.487Z,96738.88
2022-10-13T00:41:42.074Z,96731.97
2022-10-13T00:44:46.064Z,96738.31
2022-10-13T00:47:12.598Z,96737.81
2022-10-13T00:49:39.232Z,96734.69
2022-10-13T00:52:05.954Z,96736.81
2022-10-13T00:54:33.767Z,96728.09
2022-10-13T00:57:00.462Z,96730.50
2022-10-13T00:59:29.324Z,96732.38
2022-10-13T01:01:59.341Z,96735.78
2022-10-13T01:04:30.742Z,96747.97
2022-10-13T01:06:58.215Z,96743.63
2022-10-13T01:09:24.916Z,96739.91
2022-10-13T01:11:57.735Z,96744.03
2022-10-13T01:14:44.799Z,96735.34
2022-10-13T01:17:25.587Z,96720.78
2022-10-13T01:20:23.198Z,96723.53
2022-10-13T01:22:55.576Z,96727.94
2022-10-13T01:26:03.529Z,96713.25
2022-10-13T01:28:41.876Z,96718.97
2022-10-13T01:31:21.102Z,96711.47
2022-10-13T01:33:55.510Z,96707.06
2022-10-13T01:36:22.016Z,96707.66
2022-10-13T01:39:07.640Z,96699.56
2022-10-13T01:41:44.250Z,96705.97
2022-10-13T01:44:25.293Z,96700.28
2022-10-13T01:46:53.402Z,96703.88
2022-10-13T01:49:26.763Z,96695.16
2022-10-13T01:51:55.152Z,96695.00
2022-10-13T01:54:22.207Z,96685.63
2022-10-13T01:56:56.805Z,96685.06
2022-10-13T01:59:25.839Z,96686.34
2022-10-13T02:02:02.104Z,96681.03
2022-10-13T02:04:54.321Z,96675.97
2022-10-13T02:07:28.172Z,96683.59
2022-10-13T02:10:00.704Z,96676.72
2022-10-13T02:12:48.827Z,96678.56
2022-10-13T02:15:21.359Z,96675.41
2022-10-13T02:17:48.105Z,96681.88
2022-10-13T02:20:16.851Z,96680.47
2022-10-13T02:22:46.921Z,96670.28
2022-10-13T02:25:13.719Z,96676.03
2022-10-13T02:27:40.956Z,96672.22
2022-10-13T02:30:08.152Z,96680.81
2022-10-13T02:32:34.802Z,96681.09
2022-10-13T02:35:01.430Z,96676.13
2022-10-13T02:37:28.030Z,96670.19
2022-10-13T02:39:54.709Z,96676.13
2022-10-13T02:42:21.579Z,96682.19
2022-10-13T02:44:48.379Z,96677.91
2022-10-13T02:47:15.015Z,96678.31
2022-10-13T02:49:41.651Z,96683.19
2022-10-13T02:52:08.330Z,96689.09
2022-10-13T02:54:34.901Z,96684.56
2022-10-13T02:57:01.488Z,96682.13
2022-10-13T02:59:28.199Z,96676.16
2022-10-13T03:01:54.771Z,96689.09
2022-10-13T03:04:21.359Z,96682.63
2022-10-13T03:06:48.054Z,96684.44
2022-10-13T03:09:14.646Z,96689.25
2022-10-13T03:11:41.275Z,96691.31
2022-10-13T03:14:07.861Z,96685.00
2022-10-13T03:16:34.472Z,96688.81
2022-10-13T03:19:01.059Z,96689.50
2022-10-13T03:21:27.671Z,96690.78
2022-10-13T03:23:54.290Z,96689.38
2022-10-13T03:26:20.977Z,96704.09
2022-10-13T03:28:51.797Z,96700.03
2022-10-13T03:31:18.979Z,96701.13
2022-10-13T03:33:45.968Z,96705.94
2022-10-13T03:36:13.474Z,96702.44
2022-10-13T03:38:40.154Z,96704.84
2022-10-13T03:41:08.618Z,96700.66
2022-10-13T03:43:35.639Z,96706.06
2022-10-13T03:46:04.608Z,96711.78
2022-10-13T03:48:31.902Z,96708.91
2022-10-13T03:50:58.642Z,96702.66
2022-10-13T03:53:26.073Z,96712.75
2022-10-13T03:55:55.305Z,96709.00
2022-10-13T03:58:23.982Z,96705.53
2022-10-13T04:00:51.998Z,96709.38
2022-10-13T04:03:18.627Z,96709.72
2022-10-13T04:05:45.331Z,96705.09
2022-10-13T04:08:12.501Z,96712.06
2022-10-13T04:10:39.637Z,96704.66
2022-10-13T04:13:06.394Z,96719.25
2022-10-13T04:15:37.627Z,96710.25
2022-10-13T04:18:05.379Z,96707.19
2022-10-13T04:20:31.964Z,96706.31
2022-10-13T04:22:58.578Z,96698.94
2022-10-13T04:25:25.143Z,96701.53
2022-10-13T04:27:51.844Z,96703.31
2022-10-13T04:30:18.403Z,96700.16
2022-10-13T04:32:45.003Z,96695.06
2022-10-13T04:35:11.589Z,96693.66
2022-10-13T04:37:42.782Z,96698.47
2022-10-13T04:40:11.694Z,96691.63
2022-10-13T04:42:38.344Z,96696.25
2022-10-13T04:45:05.461Z,96690.84
2022-10-13T04:47:36.815Z,96681.81
2022-10-13T04:50:04.126Z,96690.41
2022-10-13T04:52:30.696Z,96685.81
2022-10-13T04:54:57.290Z,96689.00
2022-10-13T04:57:23.868Z,96687.38
2022-10-13T04:59:50.467Z,96685.19
2022-10-13T05:02:17.293Z,96682.97
2022-10-13T05:04:44.167Z,96687.38
2022-10-13T05:07:18.119Z,96681.25
2022-10-13T05:09:45.089Z,96680.41
2022-10-13T05:12:11.714Z,96682.25
2022-10-13T05:14:38.351Z,96676.84
2022-10-13T05:17:04.985Z,96668.44
2022-10-13T05:19:31.744Z,96670.81
2022-10-13T05:21:58.317Z,96669.22
2022-10-13T05:24:36.345Z,96668.00
2022-10-13T05:27:08.708Z,96671.16
2022-10-13T05:29:35.902Z,96673.25
2022-10-13T05:32:02.710Z,96678.50
2022-10-13T05:34:29.310Z,96684.22
2022-10-13T05:36:56.037Z,96680.50
2022-10-13T05:39:22.640Z,96685.06
2022-10-13T05:41:49.249Z,96693.81
2022-10-13T05:44:17.462Z,96693.13
2022-10-13T05:46:44.564Z,96694.78
2022-10-13T05:49:11.271Z,96696.72
2022-10-13T05:51:44.606Z,96694.03
2022-10-13T05:54:30.145Z,96694.41
2022-10-13T05:57:03.500Z,96688.22
2022-10-13T05:59:35.420Z,96695.19
2022-10-13T06:02:03.233Z,96692.69
2022-10-13T06:04:41.050Z,96690.34
2022-10-13T06:07:09.942Z,96691.75
2022-10-13T06:09:38.498Z,96695.75
2022-10-13T06:12:06.496Z,96699.16
2022-10-13T06:14:33.486Z,96697.47
2022-10-13T06:17:00.015Z,96698.41
2022-10-13T06:19:26.776Z,96701.28
2022-10-13T06:21:53.353Z,96704.16
2022-10-13T06:24:20.098Z,96700.66
2022-10-13T06:26:46.747Z,96706.00
2022-10-13T06:29:13.389Z,96706.06
2022-10-13T06:31:39.990Z,96695.41
2022-10-13T06:34:06.607Z,96695.94
2022-10-13T06:36:33.179Z,96702.06
2022-10-13T06:38:59.770Z,96695.81
2022-10-13T06:41:26.470Z,96705.66
2022-10-13T06:43:53.145Z,96709.13
2022-10-13T06:46:20.624Z,96705.81
2022-10-13T06:48:50.344Z,96712.22
2022-10-13T06:51:17.339Z,96711.75
2022-10-13T06:53:44.111Z,96699.69
2022-10-13T06:56:10.747Z,96702.72
2022-10-13T06:58:38.086Z,96707.75
2022-10-13T07:01:06.207Z,96707.09
2022-10-13T07:03:33.502Z,96706.81
2022-10-13T07:06:01.732Z,96705.84
2022-10-13T07:08:28.302Z,96701.34
2022-10-13T07:10:55.012Z,96702.94
2022-10-13T07:15:53.238Z,96697.66
2022-10-13T07:18:19.854Z,96704.34
2022-10-13T07:20:46.434Z,96693.53
2022-10-13T07:23:13.041Z,96699.13
2022-10-13T07:25:39.983Z,96698.25
2022-10-13T07:28:06.622Z,96687.09
2022-10-13T07:30:33.219Z,96693.28
2022-10-13T07:33:00.284Z,96688.34
2022-10-13T07:35:30.525Z,96689.59
2022-10-13T07:37:57.611Z,96686.09
2022-10-13T07:40:24.883Z,96684.53
2022-10-13T07:42:51.487Z,96685.75
2022-10-13T07:45:18.130Z,96686.53
2022-10-13T07:47:44.821Z,96684.69
2022-10-13T07:50:11.920Z,96688.94
2022-10-13T07:52:38.664Z,96684.44
2022-10-13T07:55:06.337Z,96680.13
2022-10-13T07:57:33.188Z,96682.75
2022-10-13T07:59:59.773Z,96682.97
2022-10-13T08:02:26.475Z,96679.75
2022-10-13T08:04:53.281Z,96680.91
2022-10-13T08:07:20.432Z,96680.22
2022-10-13T08:09:47.326Z,96686.22
2022-10-13T08:12:13.952Z,96685.19
2022-10-13T08:14:40.714Z,96680.94
2022-10-13T08:17:07.557Z,96679.13
2022-10-13T08:19:34.340Z,96672.31
2022-10-13T08:22:00.907Z,96680.41
2022-10-13T08:24:28.065Z,96675.72
2022-10-13T08:26:55.162Z,96673.53
2022-10-13T08:29:23.505Z,96679.06
2022-10-13T08:31:54.455Z,96672.41
2022-10-13T08:34:24.572Z,96670.53
2022-10-13T08:36:54.473Z,96670.41
2022-10-13T08:39:22.426Z,96662.13
2022-10-13T08:41:49.462Z,96665.50
2022-10-13T08:47:47.667Z,96656.94
2022-10-13T08:50:19.154Z,96656.34
2022-10-13T08:52:54.933Z,96658.22
2022-10-13T08:55:32.043Z,96654.66
2022-10-13T08:58:00.662Z,96650.00
2022-10-13T09:00:31.378Z,96661.47
2022-10-13T09:03:19.515Z,96662.44
2022-10-13T09:06:13.968Z,96656.72
2022-10-13T09:08:56.741Z,96655.78
2022-10-13T09:11:25.408Z,96659.09
2022-10-13T09:13:55.898Z,96654.31
2022-10-13T09:16:40.103Z,96650.72
2022-10-13T09:19:30.221Z,96650.41
2022-10-13T09:22:13.463Z,96644.03
2022-10-13T09:24:40.103Z,96653.59
2022-10-13T09:27:15.867Z,96652.47
2022-10-13T09:29:44.611Z,96649.13
2022-10-13T09:32:19.664Z,96649.13
2022-10-13T09:34:47.487Z,96649.47
2022-10-13T09:37:21.047Z,96651.84
2022-10-13T09:40:01.813Z,96650.88
2022-10-13T09:42:31.937Z,96637.19
2022-10-13T09:45:12.207Z,96638.00
2022-10-13T09:47:39.584Z,96633.03
2022-10-13T09:50:23.062Z,96629.50
2022-10-13T09:52:49.644Z,96632.03
2022-10-13T09:55:32.581Z,96620.72
2022-10-13T09:58:10.664Z,96623.94
2022-10-13T10:00:38.019Z,96621.25
2022-10-13T10:03:17.731Z,96613.44
2022-10-13T10:05:56.753Z,96613.56
2022-10-13T10:09:02.308Z,96612.94
2022-10-13T10:11:50.243Z,96612.47
2022-10-13T10:14:28.853Z,96616.41
2022-10-13T10:17:12.869Z,96614.31
2022-10-13T10:20:13.285Z,96615.19
2022-10-13T10:22:53.066Z,96616.31
2022-10-13T10:25:33.601Z,96616.47
2022-10-13T10:28:16.796Z,96608.38
2022-10-13T10:30:56.811Z,96614.09
2022-10-13T10:33:43.238Z,96607.09
2022-10-13T10:36:21.926Z,96606.25
2022-10-13T10:38:56.216Z,96596.41
2022-10-13T10:41:45.182Z,96589.88
2022-10-13T10:44:16.224Z,96587.88
2022-10-13T10:46:48.818Z,96593.38
2022-10-13T10:49:24.375Z,96594.53
2022-10-13T10:51:51.451Z,96590.94
2022-10-13T10:54:49.201Z,96577.91
2022-10-13T10:57:28.206Z,96577.03
2022-10-13T11:00:18.494Z,96571.28
2022-10-13T11:03:15.646Z,96568.09
2022-10-13T11:05:57.514Z,96564.09
2022-10-13T11:08:37.752Z,96555.84
2022-10-13T11:11:33.384Z,96554.47
2022-10-13T11:14:38.543Z,96547.88
2022-10-13T11:17:05.062Z,96555.81
2022-10-13T11:19:41.024Z,96550.72
2022-10-13T11:22:07.533Z,96552.69
2022-10-13T11:24:34.091Z,96555.25
2022-10-13T11:27:10.676Z,96557.66
2022-10-13T11:29:46.071Z,96559.25
2022-10-13T11:32:27.680Z,96554.72
2022-10-13T11:35:06.421Z,96556.28
2022-10-13T11:38:06.058Z,96546.75
2022-10-13T11:40:56.318Z,96547.59
2022-10-13T11:43:25.885Z,96541.25
2022-10-13T11:46:01.288Z,96532.13
2022-10-13T11:49:00.806Z,96525.66
2022-10-13T11:51:50.813Z,96523.69
2022-10-13T11:54:36.033Z,96512.00
2022-10-13T11:57:04.670Z,96509.09
2022-10-13T11:59:34.481Z,96515.94
2022-10-13T12:02:19.083Z,96513.22
2022-10-13T12:05:06.706Z,96509.13
2022-10-13T12:07:36.818Z,96503.44
2022-10-13T12:10:07.971Z,96509.31
2022-10-13T12:12:35.075Z,96502.31
2022-10-13T12:15:05.941Z,96487.06
2022-10-13T12:17:41.279Z,96489.06
2022-10-13T12:20:23.332Z,96468.06
2022-10-13T12:22:51.682Z,96476.38
2022-10-13T12:25:20.644Z,96470.84
2022-10-13T12:27:50.342Z,96457.03
2022-10-13T12:30:26.518Z,96462.41
2022-10-13T12:32:56.413Z,96461.78
2022-10-13T12:35:26.510Z,96459.44
2022-10-13T12:37:53.963Z,96462.09
2022-10-13T12:40:21.622Z,96458.69
2022-10-13T12:42:48.890Z,96456.16
2022-10-13T12:45:28.196Z,96451.13
2022-10-13T12:47:55.488Z,96449.03
2022-10-13T12:50:24.920Z,96456.41
2022-10-13T12:53:09.982Z,96443.41
2022-10-13T12:55:56.359Z,96450.06
2022-10-13T12:58:27.161Z,96445.53
2022-10-13T13:01:30.964Z,96447.09
2022-10-13T13:04:01.248Z,96440.06
2022-10-13T13:06:37.707Z,96433.81
2022-10-13T13:09:16.537Z,96427.44
2022-10-13T13:11:43.144Z,96431.19
2022-10-13T13:14:36.618Z,96429.63
2022-10-13T13:17:11.344Z,96417.41
2022-10-13T13:19:39.128Z,96425.88
2022-10-13T13:22:06.768Z,96422.03
2022-10-13T13:24:40.960Z,96423.25
2022-10-13T13:27:17.300Z,96413.81
2022-10-13T13:29:45.000Z,96417.19
2022-10-13T13:32:19.851Z,96417.19
2022-10-13T13:34:47.215Z,96419.22
2022-10-13T13:37:20.005Z,96420.81
2022-10-13T13:39:46.805Z,96415.63
2022-10-13T13:42:15.303Z,96417.16
2022-10-13T13:44:41.985Z,96422.22
2022-10-13T13:47:25.824Z,96412.28
2022-10-13T13:49:54.474Z,96414.16
2022-10-13T13:52:22.016Z,96408.44
2022-10-13T13:54:50.797Z,96412.28
2022-10-13T13:57:18.690Z,96411.53
2022-10-13T13:59:45.951Z,96408.59
2022-10-13T14:02:18.994Z,96401.31
2022-10-13T14:04:46.367Z,96398.88
2022-10-13T14:07:13.629Z,96399.31
2022-10-13T14:09:40.375Z,96403.44
2022-10-13T14:12:07.094Z,96402.28
2022-10-13T14:14:33.912Z,96400.97
2022-10-13T14:17:01.850Z,96400.84
2022-10-13T14:19:28.511Z,96389.25
2022-10-13T14:21:55.086Z,96394.00
2022-10-13T14:24:22.113Z,96394.09
2022-10-13T14:26:48.841Z,96385.34
2022-10-13T14:29:15.576Z,96385.63
2022-10-13T14:31:42.176Z,96386.78
2022-10-13T14:34:08.839Z,96378.72
2022-10-13T14:36:35.535Z,96386.78
2022-10-13T14:39:02.326Z,96372.78
2022-10-13T14:41:28.972Z,96372.41
2022-10-13T14:43:57.097Z,96382.66
2022-10-13T14:46:25.551Z,96372.88
2022-10-13T14:48:52.152Z,96382.72
2022-10-13T14:51:18.790Z,96378.03
2022-10-13T14:53:46.001Z,96377.63
2022-10-13T14:56:27.610Z,96371.63
2022-10-13T14:58:57.738Z,96371.69
2022-10-13T15:01:24.391Z,96378.81
2022-10-13T15:03:51.139Z,96380.94
2022-10-13T15:06:20.976Z,96363.56
2022-10-13T15:08:48.401Z,96367.47
2022-10-13T15:11:16.091Z,96370.38
2022-10-13T15:13:43.000Z,96365.84
2022-10-13T15:16:24.203Z,96368.84
2022-10-13T15:18:51.014Z,96368.00
2022-10-13T15:21:18.314Z,96369.34
2022-10-13T15:23:45.514Z,96375.34
2022-10-13T15:26:14.290Z,96378.13
2022-10-13T15:28:46.537Z,96377.50
2022-10-13T15:31:14.810Z,96372.75
2022-10-13T15:33:47.118Z,96375.75
2022-10-13T15:36:14.332Z,96380.41
2022-10-13T15:38:41.010Z,96383.25
2022-10-13T15:41:09.068Z,96372.72
2022-10-13T15:43:35.715Z,96369.44
2022-10-13T15:46:07.992Z,96372.91
2022-10-13T15:48:35.457Z,96377.50
2022-10-13T15:51:05.545Z,96374.75
2022-10-13T15:53:32.252Z,96367.28
2022-10-13T15:56:02.248Z,96364.84
2022-10-13T15:58:28.822Z,96358.06
2022-10-13T16:00:55.476Z,96355.78
2022-10-13T16:03:22.167Z,96354.84
2022-10-13T16:05:48.761Z,96360.09
2022-10-13T16:08:15.368Z,96362.88
2022-10-13T16:10:43.091Z,96358.53
2022-10-13T16:13:13.867Z,96355.09
2022-10-13T16:15:40.740Z,96362.75
2022-10-13T16:18:08.025Z,96368.91
2022-10-13T16:20:37.831Z,96367.22
2022-10-13T16:23:05.225Z,96365.47
2022-10-13T16:25:32.167Z,96368.53
2022-10-13T16:28:01.844Z,96373.63
2022-10-13T16:30:30.494Z,96370.00
2022-10-13T16:32:58.128Z,96369.56
2022-10-13T16:35:24.872Z,96372.63
2022-10-13T16:37:51.486Z,96370.75
2022-10-13T16:40:18.162Z,96374.09
2022-10-13T16:42:45.445Z,96381.78
2022-10-13T16:45:13.197Z,96382.28
2022-10-13T16:47:39.780Z,96380.91
2022-10-13T16:50:09.681Z,96384.16
2022-10-13T16:52:37.709Z,96381.78
2022-10-13T16:55:06.149Z,96378.97
2022-10-13T16:57:33.023Z,96387.16
2022-10-13T16:59:59.694Z,96391.63
2022-10-13T17:02:26.256Z,96386.19
2022-10-13T17:04:53.074Z,96382.38
2022-10-13T17:07:19.830Z,96388.50
2022-10-13T17:09:47.286Z,96393.03
2022-10-13T17:12:13.878Z,96389.44
2022-10-13T17:14:40.499Z,96393.16
2022-10-13T17:17:07.103Z,96381.84
2022-10-13T17:19:33.812Z,96383.75
2022-10-13T17:22:00.404Z,96387.41
2022-10-13T17:24:27.031Z,96385.38
2022-10-13T17:26:53.590Z,96389.69
2022-10-13T17:29:20.201Z,96391.94
2022-10-13T17:31:46.868Z,96395.69
2022-10-13T17:34:13.571Z,96401.81
2022-10-13T17:36:40.180Z,96395.34
2022-10-13T17:39:09.087Z,96403.38
2022-10-13T17:41:35.953Z,96399.44
2022-10-13T17:44:02.832Z,96400.09
2022-10-13T17:46:36.761Z,96394.38
2022-10-13T17:49:04.158Z,96404.78
2022-10-13T17:51:30.755Z,96404.06
2022-10-13T17:53:59.331Z,96406.31
2022-10-13T17:56:26.143Z,96399.31
2022-10-13T17:58:52.838Z,96401.78
2022-10-13T18:01:21.219Z,96405.81
2022-10-13T18:03:51.077Z,96396.63
2022-10-13T18:06:18.340Z,96403.50
2022-10-13T18:08:44.923Z,96407.09
2022-10-13T18:11:15.147Z,96408.44
2022-10-13T18:13:42.658Z,96408.84
2022-10-13T18:16:12.418Z,96405.66
2022-10-13T18:18:39.125Z,96407.59
2022-10-13T18:21:07.697Z,96404.75
2022-10-13T18:23:36.940Z,96410.38
2022-10-13T18:26:09.727Z,96402.88
2022-10-13T18:28:40.049Z,96408.06
2022-10-13T18:31:17.703Z,96405.81
2022-10-13T18:33:44.843Z,96413.06
2022-10-13T18:36:16.069Z,96406.06
2022-10-13T18:38:43.657Z,96402.44
2022-10-13T18:41:10.326Z,96410.91
2022-10-13T18:43:36.921Z,96405.81
2022-10-13T18:46:04.442Z,96403.47
2022-10-13T18:48:32.598Z,96406.72
2022-10-13T18:51:08.221Z,96405.19
2022-10-13T18:53:40.312Z,96406.50
2022-10-13T18:56:11.583Z,96393.41
2022-10-13T18:58:38.431Z,96402.19
2022-10-13T19:01:08.563Z,96399.13
2022-10-13T19:03:37.192Z,96390.22
2022-10-13T19:06:05.451Z,96393.75
2022-10-13T19:08:32.228Z,96393.50
2022-10-13T19:10:59.182Z,96393.19
2022-10-13T19:13:26.675Z,96393.50
2022-10-13T19:16:03.119Z,96394.94
2022-10-13T19:18:30.041Z,96392.09
2022-10-13T19:20:56.716Z,96394.81
2022-10-13T19:23:23.416Z,96397.88
2022-10-13T19:25:50.581Z,96399.47
2022-10-13T19:28:17.724Z,96400.25
2022-10-13T19:30:45.023Z,96394.69
2022-10-13T19:33:13.171Z,96392.97
2022-10-13T19:35:54.160Z,96398.81
2022-10-13T19:38:21.014Z,96400.25
2022-10-13T19:40:49.709Z,96398.69
2022-10-13T19:43:19.835Z,96389.41
2022-10-13T19:45:48.918Z,96398.19
2022-10-13T19:48:16.769Z,96394.56
2022-10-13T19:50:43.658Z,96394.56
2022-10-13T19:53:11.935Z,96389.78
2022-10-13T19:55:46.672Z,96386.91
2022-10-13T19:58:16.104Z,96391.38
2022-10-13T20:00:46.839Z,96391.38
2022-10-13T20:03:14.561Z,96390.28
2022-10-13T20:05:42.022Z,96385.69
2022-10-13T20:08:10.487Z,96390.00
2022-10-13T20:10:41.794Z,96384.91
2022-10-13T20:13:09.831Z,96392.09
2022-10-13T20:15:42.100Z,96378.09
2022-10-13T20:18:10.162Z,96380.34
2022-10-13T20:20:37.077Z,96379.38
2022-10-13T20:23:03.734Z,96389.56
2022-10-13T20:25:30.642Z,96386.69
2022-10-13T20:27:57.269Z,96381.28
2022-10-13T20:30:23.854Z,96385.41
2022-10-13T20:32:50.441Z,96380.97
2022-10-13T20:35:17.115Z,96384.13
2022-10-13T20:37:43.684Z,96387.97
2022-10-13T20:40:10.586Z,96385.72
2022-10-13T20:42:37.163Z,96386.38
2022-10-13T20:45:04.490Z,96384.00
2022-10-13T20:47:31.064Z,96386.69
2022-10-13T20:49:57.655Z,96382.72
2022-10-13T20:52:24.303Z,96387.34
2022-10-13T20:54:50.899Z,96381.75
2022-10-13T20:57:17.495Z,96385.13
2022-10-13T20:59:44.087Z,96384.16
2022-10-13T21:02:13.992Z,96388.28
2022-10-13T21:04:40.656Z,96389.56
2022-10-13T21:07:07.282Z,96381.91
2022-10-13T21:09:35.771Z,96381.59
2022-10-13T21:12:02.354Z,96383.19
2022-10-13T21:14:29.079Z,96384.88
2022-10-13T21:16:55.676Z,96376.28
2022-10-13T21:19:22.275Z,96382.31
2022-10-13T21:21:48.876Z,96388.50
2022-10-13T21:24:15.520Z,96389.44
2022-10-13T21:26:42.170Z,96384.66
2022-10-13T21:29:08.806Z,96387.72
2022-10-13T21:31:35.404Z,96387.22
2022-10-13T21:34:02.083Z,96388.88
2022-10-13T21:36:31.349Z,96380.63
2022-10-13T21:39:00.562Z,96383.06
2022-10-13T21:41:28.265Z,96380.06
2022-10-13T21:43:55.295Z,96389.41
2022-10-13T21:46:25.115Z,96386.94
2022-10-13T21:48:54.152Z,96386.44
2022-10-13T21:51:23.569Z,96382.63
2022-10-13T21:53:55.103Z,96379.44
2022-10-13T21:56:22.364Z,96392.38
2022-10-13T21:58:49.202Z,96389.00
2022-10-13T22:01:19.864Z,96388.63
2022-10-13T22:03:47.495Z,96389.75
2022-10-13T22:06:19.045Z,96391.22
2022-10-13T22:08:48.575Z,96390.31
2022-10-13T22:11:16.683Z,96398.97
2022-10-13T22:13:43.566Z,96398.88
2022-10-13T22:16:13.606Z,96405.00
2022-10-13T22:18:40.438Z,96404.91
2022-10-13T22:21:10.514Z,96408.91
2022-10-13T22:23:37.100Z,96405.19
2022-10-13T22:26:04.327Z,96404.13
2022-10-13T22:28:36.820Z,96395.81
2022-10-13T22:31:08.964Z,96386.78
2022-10-13T22:33:36.992Z,96388.53
2022-10-13T22:36:08.516Z,96394.25
2022-10-13T22:38:35.304Z,96393.78
2022-10-13T22:41:05.977Z,96395.50
2022-10-13T22:43:33.198Z,96394.13
2022-10-13T22:46:01.949Z,96391.34
2022-10-13T22:48:28.918Z,96384.06
2022-10-13T22:50:56.599Z,96379.34
2022-10-13T22:53:23.194Z,96392.38
2022-10-13T22:55:49.942Z,96389.56
2022-10-13T22:58:16.529Z,96376.31
2022-10-13T23:00:43.119Z,96369.69
2022-10-13T23:03:13.395Z,96371.59
2022-10-13T23:05:46.743Z,96372.09
2022-10-13T23:08:13.209Z,96372.59
2022-10-13T23:10:39.801Z,96375.75
2022-10-13T23:13:06.417Z,96377.50
2022-10-13T23:15:33.043Z,96369.69
2022-10-13T23:17:59.651Z,96372.41
2022-10-13T23:20:26.228Z,96365.47
2022-10-13T23:22:52.816Z,96362.25
2022-10-13T23:25:19.439Z,96362.00
2022-10-13T23:27:46.027Z,96361.53
2022-10-13T23:30:13.070Z,96361.38
2022-10-13T23:32:39.636Z,96358.53
2022-10-13T23:35:06.573Z,96356.16
2022-10-13T23:37:33.223Z,96355.22
2022-10-13T23:39:59.827Z,96349.22
2022-10-13T23:42:26.400Z,96352.34
2022-10-13T23:44:52.981Z,96350.28
2022-10-13T23:47:19.874Z,96346.97
2022-10-13T23:49:46.756Z,96349.50
2022-10-13T23:52:13.459Z,96337.41
2022-10-13T23:54:40.045Z,96338.72
2022-10-13T23:57:06.634Z,96331.88
2022-10-13T23:59:33.557Z,96338.06
